sensor_id;sensor_type;location;lat;lon;timestamp;temperature;humidity
24144;DHT22;12307;50.828;6.080;2024-01-06T00:02:19;17.60;62.10
24144;DHT22;12307;50.828;6.080;2024-01-06T00:04:46;17.60;62.10
24144;DHT22;12307;50.828;6.080;2024-01-06T00:07:11;17.60;62.10
24144;DHT22;12307;50.828;6.080;2024-01-06T00:09:39;17.60;62.10
24144;DHT22;12307;50.828;6.080;2024-01-06T00:12:05;17.60;62.10
24144;DHT22;12307;50.828;6.080;2024-01-06T00:14:32;17.60;62.10
24144;DHT22;12307;50.828;6.080;2024-01-06T00:16:58;17.60;62.90
24144;DHT22;12307;50.828;6.080;2024-01-06T00:19:24;17.60;62.10
24144;DHT22;12307;50.828;6.080;2024-01-06T00:21:49;17.60;62.10
24144;DHT22;12307;50.828;6.080;2024-01-06T00:24:15;17.60;62.10
24144;DHT22;12307;50.828;6.080;2024-01-06T00:26:41;17.60;62.10
24144;DHT22;12307;50.828;6.080;2024-01-06T00:29:06;17.60;62.10
24144;DHT22;12307;50.828;6.080;2024-01-06T00:31:33;17.60;62.10
24144;DHT22;12307;50.828;6.080;2024-01-06T00:33:59;17.60;62.10
24144;DHT22;12307;50.828;6.080;2024-01-06T00:36:25;17.60;62.10
24144;DHT22;12307;50.828;6.080;2024-01-06T00:38:51;17.60;62.20
24144;DHT22;12307;50.828;6.080;2024-01-06T00:41:16;17.60;62.10
24144;DHT22;12307;50.828;6.080;2024-01-06T00:43:42;17.60;62.20
24144;DHT22;12307;50.828;6.080;2024-01-06T00:46:08;17.60;62.20
24144;DHT22;12307;50.828;6.080;2024-01-06T00:48:35;17.60;62.20
24144;DHT22;12307;50.828;6.080;2024-01-06T00:51:01;17.60;62.20
24144;DHT22;12307;50.828;6.080;2024-01-06T00:53:26;17.60;62.20
24144;DHT22;12307;50.828;6.080;2024-01-06T00:55:52;17.60;62.20
24144;DHT22;12307;50.828;6.080;2024-01-06T00:58:18;17.60;62.20
24144;DHT22;12307;50.828;6.080;2024-01-06T01:00:44;17.60;62.20
24144;DHT22;12307;50.828;6.080;2024-01-06T01:03:09;17.60;62.20
24144;DHT22;12307;50.828;6.080;2024-01-06T01:05:37;17.60;62.20
24144;DHT22;12307;50.828;6.080;2024-01-06T01:08:02;17.60;62.20
24144;DHT22;12307;50.828;6.080;2024-01-06T01:10:28;17.60;62.20
24144;DHT22;12307;50.828;6.080;2024-01-06T01:12:54;17.60;62.20
24144;DHT22;12307;50.828;6.080;2024-01-06T01:15:20;17.60;62.20
24144;DHT22;12307;50.828;6.080;2024-01-06T01:17:46;17.60;62.20
24144;DHT22;12307;50.828;6.080;2024-01-06T01:20:11;17.60;62.20
24144;DHT22;12307;50.828;6.080;2024-01-06T01:22:38;17.70;62.30
24144;DHT22;12307;50.828;6.080;2024-01-06T01:25:04;17.60;62.20
24144;DHT22;12307;50.828;6.080;2024-01-06T01:27:33;17.60;62.20
24144;DHT22;12307;50.828;6.080;2024-01-06T01:29:59;17.60;62.20
24144;DHT22;12307;50.828;6.080;2024-01-06T01:32:24;17.60;62.30
24144;DHT22;12307;50.828;6.080;2024-01-06T01:34:50;17.60;62.20
24144;DHT22;12307;50.828;6.080;2024-01-06T01:37:16;17.70;62.30
24144;DHT22;12307;50.828;6.080;2024-01-06T01:39:43;17.60;62.30
24144;DHT22;12307;50.828;6.080;2024-01-06T01:42:09;17.60;62.30
24144;DHT22;12307;50.828;6.080;2024-01-06T01:44:35;17.60;62.30
24144;DHT22;12307;50.828;6.080;2024-01-06T01:47:01;17.70;62.30
24144;DHT22;12307;50.828;6.080;2024-01-06T01:49:26;17.60;62.30
24144;DHT22;12307;50.828;6.080;2024-01-06T01:51:52;17.60;62.30
24144;DHT22;12307;50.828;6.080;2024-01-06T01:54:18;17.60;62.30
24144;DHT22;12307;50.828;6.080;2024-01-06T01:56:46;17.60;62.30
24144;DHT22;12307;50.828;6.080;2024-01-06T01:59:12;17.60;62.30
24144;DHT22;12307;50.828;6.080;2024-01-06T02:01:38;17.70;62.30
24144;DHT22;12307;50.828;6.080;2024-01-06T02:04:04;17.60;62.30
24144;DHT22;12307;50.828;6.080;2024-01-06T02:06:30;17.60;62.30
24144;DHT22;12307;50.828;6.080;2024-01-06T02:08:56;17.70;62.30
24144;DHT22;12307;50.828;6.080;2024-01-06T02:11:22;17.70;62.30
24144;DHT22;12307;50.828;6.080;2024-01-06T02:13:49;17.60;62.30
24144;DHT22;12307;50.828;6.080;2024-01-06T02:16:15;17.70;62.30
24144;DHT22;12307;50.828;6.080;2024-01-06T02:18:41;17.60;62.30
24144;DHT22;12307;50.828;6.080;2024-01-06T02:21:07;17.60;62.30
24144;DHT22;12307;50.828;6.080;2024-01-06T02:23:35;17.60;62.30
24144;DHT22;12307;50.828;6.080;2024-01-06T02:26:01;17.60;62.30
24144;DHT22;12307;50.828;6.080;2024-01-06T02:28:27;17.70;62.40
24144;DHT22;12307;50.828;6.080;2024-01-06T02:30:53;17.60;62.30
24144;DHT22;12307;50.828;6.080;2024-01-06T02:33:19;17.60;62.30
24144;DHT22;12307;50.828;6.080;2024-01-06T02:35:45;17.60;62.30
24144;DHT22;12307;50.828;6.080;2024-01-06T02:38:11;17.60;62.30
24144;DHT22;12307;50.828;6.080;2024-01-06T02:40:38;17.60;62.30
24144;DHT22;12307;50.828;6.080;2024-01-06T02:43:04;17.60;62.30
24144;DHT22;12307;50.828;6.080;2024-01-06T02:45:30;17.60;62.30
24144;DHT22;12307;50.828;6.080;2024-01-06T02:47:55;17.70;62.40
24144;DHT22;12307;50.828;6.080;2024-01-06T02:50:21;17.70;62.40
24144;DHT22;12307;50.828;6.080;2024-01-06T02:52:47;17.70;62.40
24144;DHT22;12307;50.828;6.080;2024-01-06T02:55:13;17.70;62.40
24144;DHT22;12307;50.828;6.080;2024-01-06T02:57:41;17.70;62.40
24144;DHT22;12307;50.828;6.080;2024-01-06T03:00:07;17.70;62.40
24144;DHT22;12307;50.828;6.080;2024-01-06T03:02:33;17.70;62.40
24144;DHT22;12307;50.828;6.080;2024-01-06T03:05:01;17.70;62.40
24144;DHT22;12307;50.828;6.080;2024-01-06T03:07:26;17.70;62.40
24144;DHT22;12307;50.828;6.080;2024-01-06T03:09:52;17.70;62.40
24144;DHT22;12307;50.828;6.080;2024-01-06T03:12:18;17.70;62.40
24144;DHT22;12307;50.828;6.080;2024-01-06T03:14:45;17.70;62.40
24144;DHT22;12307;50.828;6.080;2024-01-06T03:17:11;17.70;62.40
24144;DHT22;12307;50.828;6.080;2024-01-06T03:19:37;17.70;62.40
24144;DHT22;12307;50.828;6.080;2024-01-06T03:22:03;17.70;62.40
24144;DHT22;12307;50.828;6.080;2024-01-06T03:24:29;17.70;62.40
24144;DHT22;12307;50.828;6.080;2024-01-06T03:26:56;17.60;62.30
24144;DHT22;12307;50.828;6.080;2024-01-06T03:29:22;17.70;62.40
24144;DHT22;12307;50.828;6.080;2024-01-06T03:31:49;17.70;62.50
24144;DHT22;12307;50.828;6.080;2024-01-06T03:34:15;17.70;62.50
24144;DHT22;12307;50.828;6.080;2024-01-06T03:36:41;17.70;62.50
24144;DHT22;12307;50.828;6.080;2024-01-06T03:39:07;17.70;62.50
24144;DHT22;12307;50.828;6.080;2024-01-06T03:41:32;17.70;62.50
24144;DHT22;12307;50.828;6.080;2024-01-06T03:43:59;17.70;62.50
24144;DHT22;12307;50.828;6.080;2024-01-06T03:46:24;17.70;62.50
24144;DHT22;12307;50.828;6.080;2024-01-06T03:48:51;17.70;62.50
24144;DHT22;12307;50.828;6.080;2024-01-06T03:51:17;17.70;62.50
24144;DHT22;12307;50.828;6.080;2024-01-06T03:53:43;17.70;62.50
24144;DHT22;12307;50.828;6.080;2024-01-06T03:56:09;17.70;62.50
24144;DHT22;12307;50.828;6.080;2024-01-06T03:58:35;17.70;62.50
24144;DHT22;12307;50.828;6.080;2024-01-06T04:01:00;17.70;62.50
24144;DHT22;12307;50.828;6.080;2024-01-06T04:03:26;17.70;62.50
24144;DHT22;12307;50.828;6.080;2024-01-06T04:05:53;17.70;62.50
24144;DHT22;12307;50.828;6.080;2024-01-06T04:08:19;17.70;62.50
24144;DHT22;12307;50.828;6.080;2024-01-06T04:10:45;17.70;62.50
24144;DHT22;12307;50.828;6.080;2024-01-06T04:13:11;17.60;62.40
24144;DHT22;12307;50.828;6.080;2024-01-06T04:15:37;17.70;62.50
24144;DHT22;12307;50.828;6.080;2024-01-06T04:18:04;17.70;62.50
24144;DHT22;12307;50.828;6.080;2024-01-06T04:20:30;17.70;62.50
24144;DHT22;12307;50.828;6.080;2024-01-06T04:22:57;17.70;62.50
24144;DHT22;12307;50.828;6.080;2024-01-06T04:25:23;17.70;62.50
24144;DHT22;12307;50.828;6.080;2024-01-06T04:27:49;17.70;62.50
24144;DHT22;12307;50.828;6.080;2024-01-06T04:30:15;17.70;62.50
24144;DHT22;12307;50.828;6.080;2024-01-06T04:32:41;17.70;62.50
24144;DHT22;12307;50.828;6.080;2024-01-06T04:35:08;17.70;62.50
24144;DHT22;12307;50.828;6.080;2024-01-06T04:37:34;17.70;62.50
24144;DHT22;12307;50.828;6.080;2024-01-06T04:40:01;17.70;62.50
24144;DHT22;12307;50.828;6.080;2024-01-06T04:42:28;17.70;62.50
24144;DHT22;12307;50.828;6.080;2024-01-06T04:44:54;17.70;62.50
24144;DHT22;12307;50.828;6.080;2024-01-06T04:47:19;17.70;62.50
24144;DHT22;12307;50.828;6.080;2024-01-06T04:49:45;17.70;62.50
24144;DHT22;12307;50.828;6.080;2024-01-06T04:52:11;17.70;62.50
24144;DHT22;12307;50.828;6.080;2024-01-06T04:54:37;17.70;62.40
24144;DHT22;12307;50.828;6.080;2024-01-06T04:57:04;17.70;62.40
24144;DHT22;12307;50.828;6.080;2024-01-06T04:59:30;17.70;62.40
24144;DHT22;12307;50.828;6.080;2024-01-06T05:01:57;17.70;62.40
24144;DHT22;12307;50.828;6.080;2024-01-06T05:04:23;17.70;62.40
24144;DHT22;12307;50.828;6.080;2024-01-06T05:06:49;17.70;62.50
24144;DHT22;12307;50.828;6.080;2024-01-06T05:09:15;17.70;62.40
24144;DHT22;12307;50.828;6.080;2024-01-06T05:11:43;17.70;62.40
24144;DHT22;12307;50.828;6.080;2024-01-06T05:14:10;17.70;62.40
24144;DHT22;12307;50.828;6.080;2024-01-06T05:16:36;17.70;62.40
24144;DHT22;12307;50.828;6.080;2024-01-06T05:19:01;17.70;62.40
24144;DHT22;12307;50.828;6.080;2024-01-06T05:21:27;17.70;62.40
24144;DHT22;12307;50.828;6.080;2024-01-06T05:23:53;17.60;62.30
24144;DHT22;12307;50.828;6.080;2024-01-06T05:26:19;17.70;62.40
24144;DHT22;12307;50.828;6.080;2024-01-06T05:28:45;17.70;62.40
24144;DHT22;12307;50.828;6.080;2024-01-06T05:31:12;17.70;62.40
24144;DHT22;12307;50.828;6.080;2024-01-06T05:33:37;17.70;62.40
24144;DHT22;12307;50.828;6.080;2024-01-06T05:36:04;17.70;62.50
24144;DHT22;12307;50.828;6.080;2024-01-06T05:38:30;17.70;62.40
24144;DHT22;12307;50.828;6.080;2024-01-06T05:40:56;17.70;62.40
24144;DHT22;12307;50.828;6.080;2024-01-06T05:43:21;17.60;63.20
24144;DHT22;12307;50.828;6.080;2024-01-06T05:45:47;17.60;62.30
24144;DHT22;12307;50.828;6.080;2024-01-06T05:48:14;17.70;62.40
24144;DHT22;12307;50.828;6.080;2024-01-06T05:50:40;17.70;62.40
24144;DHT22;12307;50.828;6.080;2024-01-06T05:53:06;17.60;62.30
24144;DHT22;12307;50.828;6.080;2024-01-06T05:55:32;17.60;62.30
24144;DHT22;12307;50.828;6.080;2024-01-06T05:57:58;17.60;62.30
24144;DHT22;12307;50.828;6.080;2024-01-06T06:00:24;17.60;62.30
24144;DHT22;12307;50.828;6.080;2024-01-06T06:02:50;17.60;62.30
24144;DHT22;12307;50.828;6.080;2024-01-06T06:05:17;17.60;62.30
24144;DHT22;12307;50.828;6.080;2024-01-06T06:07:43;17.60;62.40
24144;DHT22;12307;50.828;6.080;2024-01-06T06:10:09;17.60;62.30
24144;DHT22;12307;50.828;6.080;2024-01-06T06:12:36;17.60;62.30
24144;DHT22;12307;50.828;6.080;2024-01-06T06:15:02;17.60;62.30
24144;DHT22;12307;50.828;6.080;2024-01-06T06:17:29;17.60;62.30
24144;DHT22;12307;50.828;6.080;2024-01-06T06:19:55;17.60;62.30
24144;DHT22;12307;50.828;6.080;2024-01-06T06:22:23;17.60;62.30
24144;DHT22;12307;50.828;6.080;2024-01-06T06:24:51;17.60;62.40
24144;DHT22;12307;50.828;6.080;2024-01-06T06:27:17;17.60;62.30
24144;DHT22;12307;50.828;6.080;2024-01-06T06:29:43;17.60;62.30
24144;DHT22;12307;50.828;6.080;2024-01-06T06:32:09;17.60;62.40
24144;DHT22;12307;50.828;6.080;2024-01-06T06:34:34;17.60;62.40
24144;DHT22;12307;50.828;6.080;2024-01-06T06:37:00;17.60;62.40
24144;DHT22;12307;50.828;6.080;2024-01-06T06:39:27;17.60;62.50
24144;DHT22;12307;50.828;6.080;2024-01-06T06:41:53;17.60;62.40
24144;DHT22;12307;50.828;6.080;2024-01-06T06:44:19;17.60;62.40
24144;DHT22;12307;50.828;6.080;2024-01-06T06:46:45;17.60;62.40
24144;DHT22;12307;50.828;6.080;2024-01-06T06:49:11;17.60;62.40
24144;DHT22;12307;50.828;6.080;2024-01-06T06:51:37;17.60;62.40
24144;DHT22;12307;50.828;6.080;2024-01-06T06:54:10;17.60;62.40
24144;DHT22;12307;50.828;6.080;2024-01-06T06:56:37;17.60;62.40
24144;DHT22;12307;50.828;6.080;2024-01-06T06:59:02;17.60;62.40
24144;DHT22;12307;50.828;6.080;2024-01-06T07:01:28;17.60;62.30
24144;DHT22;12307;50.828;6.080;2024-01-06T07:03:54;17.60;62.30
24144;DHT22;12307;50.828;6.080;2024-01-06T07:06:20;17.60;62.30
24144;DHT22;12307;50.828;6.080;2024-01-06T07:08:45;17.60;62.30
24144;DHT22;12307;50.828;6.080;2024-01-06T07:11:11;17.60;62.30
24144;DHT22;12307;50.828;6.080;2024-01-06T07:13:41;17.60;62.30
24144;DHT22;12307;50.828;6.080;2024-01-06T07:16:07;17.60;62.30
24144;DHT22;12307;50.828;6.080;2024-01-06T07:18:33;17.60;62.30
24144;DHT22;12307;50.828;6.080;2024-01-06T07:20:58;17.60;62.30
24144;DHT22;12307;50.828;6.080;2024-01-06T07:23:24;17.60;62.30
24144;DHT22;12307;50.828;6.080;2024-01-06T07:25:50;17.60;62.30
24144;DHT22;12307;50.828;6.080;2024-01-06T07:28:16;17.50;62.20
24144;DHT22;12307;50.828;6.080;2024-01-06T07:30:43;17.60;63.10
24144;DHT22;12307;50.828;6.080;2024-01-06T07:33:09;17.50;62.20
24144;DHT22;12307;50.828;6.080;2024-01-06T07:35:36;17.50;62.30
24144;DHT22;12307;50.828;6.080;2024-01-06T07:38:03;17.60;62.30
24144;DHT22;12307;50.828;6.080;2024-01-06T07:40:29;17.50;62.30
24144;DHT22;12307;50.828;6.080;2024-01-06T07:42:54;17.50;62.30
24144;DHT22;12307;50.828;6.080;2024-01-06T07:45:20;17.50;62.30
24144;DHT22;12307;50.828;6.080;2024-01-06T07:47:47;17.50;62.30
24144;DHT22;12307;50.828;6.080;2024-01-06T07:50:13;17.50;62.30
24144;DHT22;12307;50.828;6.080;2024-01-06T07:52:38;17.50;62.30
24144;DHT22;12307;50.828;6.080;2024-01-06T07:55:05;17.60;62.30
24144;DHT22;12307;50.828;6.080;2024-01-06T07:57:30;17.50;62.30
24144;DHT22;12307;50.828;6.080;2024-01-06T07:59:56;17.50;62.30
24144;DHT22;12307;50.828;6.080;2024-01-06T08:02:22;17.50;62.30
24144;DHT22;12307;50.828;6.080;2024-01-06T08:04:49;17.50;62.40
24144;DHT22;12307;50.828;6.080;2024-01-06T08:07:15;17.50;62.30
24144;DHT22;12307;50.828;6.080;2024-01-06T08:09:40;17.50;62.30
24144;DHT22;12307;50.828;6.080;2024-01-06T08:12:06;17.50;62.30
24144;DHT22;12307;50.828;6.080;2024-01-06T08:14:32;17.50;62.30
24144;DHT22;12307;50.828;6.080;2024-01-06T08:16:58;17.50;62.40
24144;DHT22;12307;50.828;6.080;2024-01-06T08:19:24;17.50;62.30
24144;DHT22;12307;50.828;6.080;2024-01-06T08:21:51;17.50;62.30
24144;DHT22;12307;50.828;6.080;2024-01-06T08:24:16;17.50;62.30
24144;DHT22;12307;50.828;6.080;2024-01-06T08:26:42;17.50;62.30
24144;DHT22;12307;50.828;6.080;2024-01-06T08:29:08;17.50;62.30
24144;DHT22;12307;50.828;6.080;2024-01-06T08:31:33;17.50;62.30
24144;DHT22;12307;50.828;6.080;2024-01-06T08:33:59;17.50;62.30
24144;DHT22;12307;50.828;6.080;2024-01-06T08:36:25;17.50;62.40
24144;DHT22;12307;50.828;6.080;2024-01-06T08:38:52;17.50;62.30
24144;DHT22;12307;50.828;6.080;2024-01-06T08:41:18;17.50;62.30
24144;DHT22;12307;50.828;6.080;2024-01-06T08:43:44;17.50;62.30
24144;DHT22;12307;50.828;6.080;2024-01-06T08:46:09;17.50;62.30
24144;DHT22;12307;50.828;6.080;2024-01-06T08:48:35;17.50;62.30
24144;DHT22;12307;50.828;6.080;2024-01-06T08:51:01;17.50;62.30
24144;DHT22;12307;50.828;6.080;2024-01-06T08:53:27;17.50;62.30
24144;DHT22;12307;50.828;6.080;2024-01-06T08:55:54;17.50;62.30
24144;DHT22;12307;50.828;6.080;2024-01-06T08:58:19;17.50;62.30
24144;DHT22;12307;50.828;6.080;2024-01-06T09:00:45;17.50;62.30
24144;DHT22;12307;50.828;6.080;2024-01-06T09:03:11;17.50;62.30
24144;DHT22;12307;50.828;6.080;2024-01-06T09:05:38;17.50;62.30
24144;DHT22;12307;50.828;6.080;2024-01-06T09:08:05;17.50;62.30
24144;DHT22;12307;50.828;6.080;2024-01-06T09:10:31;17.50;62.20
24144;DHT22;12307;50.828;6.080;2024-01-06T09:12:58;17.50;62.20
24144;DHT22;12307;50.828;6.080;2024-01-06T09:15:24;17.50;62.20
24144;DHT22;12307;50.828;6.080;2024-01-06T09:17:49;17.50;62.20
24144;DHT22;12307;50.828;6.080;2024-01-06T09:20:15;17.50;62.20
24144;DHT22;12307;50.828;6.080;2024-01-06T09:22:42;17.50;62.20
24144;DHT22;12307;50.828;6.080;2024-01-06T09:25:08;17.50;62.20
24144;DHT22;12307;50.828;6.080;2024-01-06T09:27:34;17.50;62.20
24144;DHT22;12307;50.828;6.080;2024-01-06T09:30:01;17.50;62.20
24144;DHT22;12307;50.828;6.080;2024-01-06T09:32:26;17.50;62.10
24144;DHT22;12307;50.828;6.080;2024-01-06T09:34:52;17.50;62.20
24144;DHT22;12307;50.828;6.080;2024-01-06T09:37:18;17.50;62.10
24144;DHT22;12307;50.828;6.080;2024-01-06T09:39:44;17.50;62.10
24144;DHT22;12307;50.828;6.080;2024-01-06T09:42:09;17.50;62.10
24144;DHT22;12307;50.828;6.080;2024-01-06T09:44:37;17.50;62.10
24144;DHT22;12307;50.828;6.080;2024-01-06T09:47:04;17.50;62.10
24144;DHT22;12307;50.828;6.080;2024-01-06T09:49:32;17.50;62.10
24144;DHT22;12307;50.828;6.080;2024-01-06T09:52:01;17.40;62.10
24144;DHT22;12307;50.828;6.080;2024-01-06T09:54:30;17.50;62.10
24144;DHT22;12307;50.828;6.080;2024-01-06T09:56:59;17.50;62.20
24144;DHT22;12307;50.828;6.080;2024-01-06T09:59:25;17.40;62.10
24144;DHT22;12307;50.828;6.080;2024-01-06T10:01:51;17.40;62.10
24144;DHT22;12307;50.828;6.080;2024-01-06T10:04:19;17.50;62.10
24144;DHT22;12307;50.828;6.080;2024-01-06T10:06:45;17.50;62.20
24144;DHT22;12307;50.828;6.080;2024-01-06T10:09:12;17.40;62.10
24144;DHT22;12307;50.828;6.080;2024-01-06T10:11:38;17.40;62.10
24144;DHT22;12307;50.828;6.080;2024-01-06T10:14:06;17.40;62.20
24144;DHT22;12307;50.828;6.080;2024-01-06T10:16:33;17.40;62.10
24144;DHT22;12307;50.828;6.080;2024-01-06T10:18:59;17.40;62.10
24144;DHT22;12307;50.828;6.080;2024-01-06T10:21:27;17.40;62.10
24144;DHT22;12307;50.828;6.080;2024-01-06T10:23:54;17.50;62.20
24144;DHT22;12307;50.828;6.080;2024-01-06T10:26:19;17.40;62.10
24144;DHT22;12307;50.828;6.080;2024-01-06T10:28:45;17.40;62.10
24144;DHT22;12307;50.828;6.080;2024-01-06T10:31:13;17.50;62.20
24144;DHT22;12307;50.828;6.080;2024-01-06T10:33:39;17.40;62.10
24144;DHT22;12307;50.828;6.080;2024-01-06T10:36:06;17.40;62.10
24144;DHT22;12307;50.828;6.080;2024-01-06T10:38:35;17.40;62.10
24144;DHT22;12307;50.828;6.080;2024-01-06T10:41:02;17.40;62.10
24144;DHT22;12307;50.828;6.080;2024-01-06T10:43:33;17.40;62.10
24144;DHT22;12307;50.828;6.080;2024-01-06T10:46:03;17.50;62.10
24144;DHT22;12307;50.828;6.080;2024-01-06T10:48:30;17.50;62.10
24144;DHT22;12307;50.828;6.080;2024-01-06T10:50:58;17.50;62.10
24144;DHT22;12307;50.828;6.080;2024-01-06T10:53:26;17.50;62.10
24144;DHT22;12307;50.828;6.080;2024-01-06T10:55:53;17.50;62.10
24144;DHT22;12307;50.828;6.080;2024-01-06T10:58:20;17.50;62.10
24144;DHT22;12307;50.828;6.080;2024-01-06T11:00:47;17.50;62.10
24144;DHT22;12307;50.828;6.080;2024-01-06T11:03:13;17.50;62.10
24144;DHT22;12307;50.828;6.080;2024-01-06T11:05:41;17.50;62.00
24144;DHT22;12307;50.828;6.080;2024-01-06T11:08:08;17.50;62.00
24144;DHT22;12307;50.828;6.080;2024-01-06T11:10:35;17.50;62.00
24144;DHT22;12307;50.828;6.080;2024-01-06T11:13:11;17.50;62.00
24144;DHT22;12307;50.828;6.080;2024-01-06T11:15:46;17.50;61.90
24144;DHT22;12307;50.828;6.080;2024-01-06T11:18:30;17.50;61.90
24144;DHT22;12307;50.828;6.080;2024-01-06T11:21:20;17.50;61.90
24144;DHT22;12307;50.828;6.080;2024-01-06T11:24:19;17.50;61.90
24144;DHT22;12307;50.828;6.080;2024-01-06T11:26:51;17.50;61.90
24144;DHT22;12307;50.828;6.080;2024-01-06T11:29:19;17.50;61.80
24144;DHT22;12307;50.828;6.080;2024-01-06T11:34:48;17.50;61.80
24144;DHT22;12307;50.828;6.080;2024-01-06T11:37:15;17.50;61.80
24144;DHT22;12307;50.828;6.080;2024-01-06T11:39:43;17.50;61.80
24144;DHT22;12307;50.828;6.080;2024-01-06T11:42:10;17.50;61.80
24144;DHT22;12307;50.828;6.080;2024-01-06T11:44:38;17.60;61.80
24144;DHT22;12307;50.828;6.080;2024-01-06T11:47:05;17.60;61.80
24144;DHT22;12307;50.828;6.080;2024-01-06T11:49:31;17.60;61.80
24144;DHT22;12307;50.828;6.080;2024-01-06T11:51:57;17.50;61.60
24144;DHT22;12307;50.828;6.080;2024-01-06T11:54:24;17.60;61.70
24144;DHT22;12307;50.828;6.080;2024-01-06T11:56:50;17.60;61.60
24144;DHT22;12307;50.828;6.080;2024-01-06T11:59:19;17.60;61.70
24144;DHT22;12307;50.828;6.080;2024-01-06T12:01:47;17.60;61.60
24144;DHT22;12307;50.828;6.080;2024-01-06T12:04:14;17.60;61.60
24144;DHT22;12307;50.828;6.080;2024-01-06T12:06:41;17.60;61.60
24144;DHT22;12307;50.828;6.080;2024-01-06T12:09:07;17.60;61.50
24144;DHT22;12307;50.828;6.080;2024-01-06T12:11:33;17.70;61.60
24144;DHT22;12307;50.828;6.080;2024-01-06T12:13:59;17.60;61.50
24144;DHT22;12307;50.828;6.080;2024-01-06T12:16:25;17.60;61.50
24144;DHT22;12307;50.828;6.080;2024-01-06T12:18:54;17.60;61.60
24144;DHT22;12307;50.828;6.080;2024-01-06T12:21:21;17.60;61.50
24144;DHT22;12307;50.828;6.080;2024-01-06T12:23:46;17.60;61.50
24144;DHT22;12307;50.828;6.080;2024-01-06T12:26:12;17.60;61.50
24144;DHT22;12307;50.828;6.080;2024-01-06T12:28:38;17.60;61.50
24144;DHT22;12307;50.828;6.080;2024-01-06T12:31:04;17.60;61.60
24144;DHT22;12307;50.828;6.080;2024-01-06T12:33:30;17.60;61.60
24144;DHT22;12307;50.828;6.080;2024-01-06T12:35:59;17.60;61.60
24144;DHT22;12307;50.828;6.080;2024-01-06T12:38:24;17.50;61.60
24144;DHT22;12307;50.828;6.080;2024-01-06T12:40:53;17.50;61.50
24144;DHT22;12307;50.828;6.080;2024-01-06T12:43:20;17.50;61.60
24144;DHT22;12307;50.828;6.080;2024-01-06T12:45:46;17.60;61.60
24144;DHT22;12307;50.828;6.080;2024-01-06T12:48:12;17.50;61.60
24144;DHT22;12307;50.828;6.080;2024-01-06T12:50:37;17.60;61.60
24144;DHT22;12307;50.828;6.080;2024-01-06T12:53:05;17.50;61.60
24144;DHT22;12307;50.828;6.080;2024-01-06T12:55:30;17.50;61.60
24144;DHT22;12307;50.828;6.080;2024-01-06T12:57:56;17.60;61.60
24144;DHT22;12307;50.828;6.080;2024-01-06T13:00:22;17.60;61.60
24144;DHT22;12307;50.828;6.080;2024-01-06T13:02:48;17.50;61.60
24144;DHT22;12307;50.828;6.080;2024-01-06T13:05:13;17.50;61.60
24144;DHT22;12307;50.828;6.080;2024-01-06T13:07:39;17.50;61.60
24144;DHT22;12307;50.828;6.080;2024-01-06T13:10:08;17.50;61.60
24144;DHT22;12307;50.828;6.080;2024-01-06T13:12:34;17.60;61.60
24144;DHT22;12307;50.828;6.080;2024-01-06T13:14:59;17.50;61.60
24144;DHT22;12307;50.828;6.080;2024-01-06T13:17:26;17.50;61.60
24144;DHT22;12307;50.828;6.080;2024-01-06T13:19:52;17.50;61.60
24144;DHT22;12307;50.828;6.080;2024-01-06T13:22:17;17.50;62.40
24144;DHT22;12307;50.828;6.080;2024-01-06T13:24:45;17.60;61.60
24144;DHT22;12307;50.828;6.080;2024-01-06T13:27:13;17.50;61.60
24144;DHT22;12307;50.828;6.080;2024-01-06T13:29:38;17.50;61.60
24144;DHT22;12307;50.828;6.080;2024-01-06T13:32:05;17.50;61.60
24144;DHT22;12307;50.828;6.080;2024-01-06T13:34:31;17.50;61.60
24144;DHT22;12307;50.828;6.080;2024-01-06T13:36:57;17.60;61.60
24144;DHT22;12307;50.828;6.080;2024-01-06T13:39:23;17.50;61.60
24144;DHT22;12307;50.828;6.080;2024-01-06T13:41:49;17.50;61.60
24144;DHT22;12307;50.828;6.080;2024-01-06T13:44:16;17.50;61.60
24144;DHT22;12307;50.828;6.080;2024-01-06T13:46:42;17.50;61.60
24144;DHT22;12307;50.828;6.080;2024-01-06T13:49:10;17.50;61.60
24144;DHT22;12307;50.828;6.080;2024-01-06T13:51:36;17.50;61.60
24144;DHT22;12307;50.828;6.080;2024-01-06T13:54:01;17.50;61.60
24144;DHT22;12307;50.828;6.080;2024-01-06T13:56:27;17.50;62.40
24144;DHT22;12307;50.828;6.080;2024-01-06T13:58:53;17.50;61.60
24144;DHT22;12307;50.828;6.080;2024-01-06T14:01:20;17.50;61.60
24144;DHT22;12307;50.828;6.080;2024-01-06T14:03:46;17.50;61.60
24144;DHT22;12307;50.828;6.080;2024-01-06T14:06:12;17.50;61.60
24144;DHT22;12307;50.828;6.080;2024-01-06T14:08:37;17.50;61.60
24144;DHT22;12307;50.828;6.080;2024-01-06T14:11:03;17.50;61.60
24144;DHT22;12307;50.828;6.080;2024-01-06T14:13:31;17.50;61.70
24144;DHT22;12307;50.828;6.080;2024-01-06T14:15:56;17.50;61.70
24144;DHT22;12307;50.828;6.080;2024-01-06T14:18:24;17.50;61.60
24144;DHT22;12307;50.828;6.080;2024-01-06T14:20:49;17.40;61.60
24144;DHT22;12307;50.828;6.080;2024-01-06T14:23:16;17.50;61.60
24144;DHT22;12307;50.828;6.080;2024-01-06T14:25:42;17.40;61.60
24144;DHT22;12307;50.828;6.080;2024-01-06T14:28:08;17.50;61.60
24144;DHT22;12307;50.828;6.080;2024-01-06T14:30:34;17.50;61.60
24144;DHT22;12307;50.828;6.080;2024-01-06T14:33:00;17.40;61.60
24144;DHT22;12307;50.828;6.080;2024-01-06T14:35:27;17.40;61.60
24144;DHT22;12307;50.828;6.080;2024-01-06T14:37:53;17.40;61.60
24144;DHT22;12307;50.828;6.080;2024-01-06T14:40:19;17.40;61.60
24144;DHT22;12307;50.828;6.080;2024-01-06T14:42:45;17.40;61.60
24144;DHT22;12307;50.828;6.080;2024-01-06T14:45:11;17.40;61.60
24144;DHT22;12307;50.828;6.080;2024-01-06T14:47:37;17.50;61.70
24144;DHT22;12307;50.828;6.080;2024-01-06T14:50:03;17.50;61.70
24144;DHT22;12307;50.828;6.080;2024-01-06T14:52:30;17.50;61.70
24144;DHT22;12307;50.828;6.080;2024-01-06T14:54:56;17.40;61.60
24144;DHT22;12307;50.828;6.080;2024-01-06T14:57:22;17.40;61.60
24144;DHT22;12307;50.828;6.080;2024-01-06T14:59:47;17.40;61.60
24144;DHT22;12307;50.828;6.080;2024-01-06T15:02:13;17.40;61.60
24144;DHT22;12307;50.828;6.080;2024-01-06T15:04:39;17.50;61.70
24144;DHT22;12307;50.828;6.080;2024-01-06T15:07:05;17.40;61.60
24144;DHT22;12307;50.828;6.080;2024-01-06T15:09:32;17.40;61.60
24144;DHT22;12307;50.828;6.080;2024-01-06T15:11:58;17.40;61.60
24144;DHT22;12307;50.828;6.080;2024-01-06T15:14:23;17.40;61.70
24144;DHT22;12307;50.828;6.080;2024-01-06T15:16:49;17.40;61.60
24144;DHT22;12307;50.828;6.080;2024-01-06T15:19:15;17.40;61.60
24144;DHT22;12307;50.828;6.080;2024-01-06T15:21:40;17.40;61.60
24144;DHT22;12307;50.828;6.080;2024-01-06T15:24:08;17.40;61.60
24144;DHT22;12307;50.828;6.080;2024-01-06T15:26:35;17.40;61.60
24144;DHT22;12307;50.828;6.080;2024-01-06T15:29:01;17.40;61.70